Time;durP1;ratioP1;P1;durP2;ratioP2;P2;SDS_P1;SDS_P2;PMS_P1;PMS_P2;Temp;Humidity;BMP_temperature;BMP_pressure;BME280_temperature;BME280_humidity;BME280_pressure;Samples;Min_cycle;Max_cycle;Signal;HPM_P1;HPM_P2
2023/09/03 00:01:27;;;;;;;5.38;3.17;;;15.30;99.90;;;;;;5055616;28;20025;-38
2023/09/03 00:03:52;;;;;;;4.68;3.35;;;15.20;99.90;;;;;;5054632;28;20082;-38
2023/09/03 00:06:18;;;;;;;3.60;3.30;;;15.20;99.90;;;;;;5054617;28;20041;-53
2023/09/03 00:08:43;;;;;;;3.67;2.92;;;15.20;99.90;;;;;;5054787;28;20036;-50
2023/09/03 00:11:09;;;;;;;10.20;3.47;;;15.20;99.90;;;;;;5054065;28;20559;-49
2023/09/03 00:13:35;;;;;;;3.45;3.03;;;15.20;99.90;;;;;;5051451;28;20094;-52
2023/09/03 00:16:00;;;;;;;6.13;3.70;;;15.10;99.90;;;;;;5049128;28;20071;-50
2023/09/03 00:18:26;;;;;;;5.22;3.00;;;15.10;99.90;;;;;;5051812;28;20569;-49
2023/09/03 00:21:02;;;;;;;8.50;3.00;;;15.10;99.90;;;;;;5050467;28;20020;-46
2023/09/03 00:23:29;;;;;;;3.58;3.17;;;15.10;99.90;;;;;;5052165;28;20090;-52
2023/09/03 00:25:58;;;;;;;3.58;2.85;;;15.00;99.90;;;;;;5052166;28;20031;-49
2023/09/03 00:28:25;;;;;;;3.80;3.20;;;15.00;99.90;;;;;;5048542;28;20032;-48
2023/09/03 00:31:23;;;;;;;4.85;3.78;;;15.00;99.90;;;;;;5046134;28;20057;-52
2023/09/03 00:33:49;;;;;;;4.57;3.30;;;15.00;99.90;;;;;;5022367;28;20056;-52
2023/09/03 00:36:14;;;;;;;7.07;3.60;;;14.90;99.90;;;;;;5039758;28;20437;-50
2023/09/03 00:38:40;;;;;;;6.05;4.22;;;14.90;99.90;;;;;;5054322;28;20035;-52
2023/09/03 00:41:05;;;;;;;5.50;4.13;;;15.00;99.90;;;;;;5053564;28;20033;-38
2023/09/03 00:43:32;;;;;;;5.28;3.33;;;14.90;99.90;;;;;;5036638;28;20137;-39
2023/09/03 00:46:05;;;;;;;6.88;2.90;;;14.90;99.90;;;;;;5054455;28;20116;-39
2023/09/03 00:48:31;;;;;;;5.80;3.97;;;14.90;99.90;;;;;;5034132;28;20025;-38
2023/09/03 00:51:06;;;;;;;5.15;3.92;;;14.90;99.90;;;;;;5051539;28;20059;-38
2023/09/03 00:53:34;;;;;;;4.57;3.40;;;14.80;99.90;;;;;;5054309;28;20025;-38
2023/09/03 00:56:00;;;;;;;4.00;3.00;;;14.80;99.90;;;;;;5053298;28;20112;-38
2023/09/03 00:58:26;;;;;;;4.88;3.63;;;14.90;99.90;;;;;;5054269;28;20545;-39
2023/09/03 01:00:52;;;;;;;5.80;4.10;;;14.80;99.90;;;;;;5015720;28;20049;-41
2023/09/03 01:03:18;;;;;;;9.35;4.22;;;14.80;99.90;;;;;;5034766;28;20060;-40
2023/09/03 01:05:44;;;;;;;6.43;4.50;;;14.80;99.90;;;;;;5050992;28;20021;-39
2023/09/03 01:08:10;;;;;;;7.88;3.78;;;14.80;99.90;;;;;;5053814;28;20443;-39
2023/09/03 01:10:57;;;;;;;5.88;3.95;;;14.80;99.90;;;;;;5053997;28;20032;-38
2023/09/03 01:13:51;;;;;;;4.45;3.03;;;14.70;99.90;;;;;;5053084;28;20033;-39
2023/09/03 01:16:51;;;;;;;4.88;3.78;;;14.80;99.90;;;;;;5051941;28;20040;-40
2023/09/03 01:19:58;;;;;;;5.13;3.63;;;14.70;99.90;;;;;;5053276;28;20119;-39
2023/09/03 01:22:31;;;;;;;4.63;3.97;;;14.70;99.90;;;;;;5053285;28;20094;-40
2023/09/03 01:25:39;;;;;;;5.32;4.10;;;14.70;99.90;;;;;;5053013;28;20465;-38
2023/09/03 01:28:22;;;;;;;8.15;4.32;;;14.70;99.90;;;;;;5035869;28;20505;-39
2023/09/03 01:30:50;;;;;;;6.22;4.10;;;14.70;99.90;;;;;;5049493;28;20045;-41
2023/09/03 01:33:17;;;;;;;;;;;14.60;99.90;;;;;;5044314;28;20470;-40
2023/09/03 01:35:43;;;;;;;5.07;4.22;;;14.60;99.90;;;;;;5052725;28;19962;-39
2023/09/03 01:38:09;;;;;;;6.65;3.88;;;14.60;99.90;;;;;;5053531;28;20408;-40
2023/09/03 01:40:35;;;;;;;6.22;3.72;;;14.60;99.90;;;;;;5052047;28;20032;-38
2023/09/03 01:43:00;;;;;;;9.95;4.78;;;14.60;99.90;;;;;;5053353;28;20052;-41
2023/09/03 01:45:50;;;;;;;7.68;4.43;;;14.50;99.90;;;;;;5050192;28;20036;-38
2023/09/03 01:48:39;;;;;;;8.88;4.38;;;14.50;99.90;;;;;;5052411;28;20086;-39
2023/09/03 01:51:25;;;;;;;6.05;3.45;;;14.50;99.90;;;;;;5051617;28;20104;-39
2023/09/03 01:54:06;;;;;;;4.17;3.37;;;14.40;99.90;;;;;;5053186;28;20445;-42
2023/09/03 01:56:36;;;;;;;5.30;3.65;;;14.50;99.90;;;;;;5052622;28;20056;-38
2023/09/03 01:59:11;;;;;;;4.45;3.67;;;14.40;99.90;;;;;;5053131;28;20111;-40
2023/09/03 02:01:38;;;;;;;6.05;4.32;;;14.40;99.90;;;;;;5051499;28;20025;-39
2023/09/03 02:04:04;;;;;;;6.80;4.18;;;14.40;99.90;;;;;;5051952;28;20021;-40
2023/09/03 02:06:29;;;;;;;5.22;4.00;;;14.30;99.90;;;;;;5051568;28;20040;-42
2023/09/03 02:08:55;;;;;;;5.53;4.00;;;14.40;99.90;;;;;;5052980;28;20025;-37
2023/09/03 02:11:21;;;;;;;6.63;4.43;;;14.40;99.90;;;;;;5051790;28;20029;-40
2023/09/03 02:13:46;;;;;;;7.35;4.90;;;14.40;99.90;;;;;;5051440;28;20045;-43
2023/09/03 02:16:12;;;;;;;8.75;5.05;;;14.30;99.90;;;;;;5049967;28;20112;-38
2023/09/03 02:18:37;;;;;;;6.15;4.60;;;14.40;99.90;;;;;;5051143;28;20470;-39
2023/09/03 02:21:03;;;;;;;6.70;4.32;;;14.40;99.90;;;;;;5046251;28;20452;-39
2023/09/03 02:23:29;;;;;;;6.72;4.55;;;14.30;99.90;;;;;;5052815;28;20020;-43
2023/09/03 02:26:02;;;;;;;5.80;4.07;;;14.40;99.90;;;;;;5051332;28;20028;-40
2023/09/03 02:28:28;;;;;;;6.53;4.50;;;14.40;99.90;;;;;;5052837;28;20028;-40
2023/09/03 02:30:54;;;;;;;7.10;4.95;;;14.30;99.90;;;;;;5052545;28;20051;-38
2023/09/03 02:33:19;;;;;;;6.13;4.03;;;14.30;99.90;;;;;;5052550;28;20025;-40
2023/09/03 02:35:45;;;;;;;8.32;5.30;;;14.30;99.90;;;;;;5051446;28;20428;-39
2023/09/03 02:38:11;;;;;;;8.55;4.60;;;14.40;99.90;;;;;;5051670;28;20021;-40
2023/09/03 02:40:37;;;;;;;12.30;5.57;;;14.40;99.90;;;;;;5052157;28;20486;-40
2023/09/03 02:43:04;;;;;;;6.90;5.03;;;14.50;99.90;;;;;;5052552;28;20018;-40
2023/09/03 02:45:30;;;;;;;4.68;2.85;;;14.50;99.90;;;;;;5051486;28;20500;-40
2023/09/03 02:47:56;;;;;;;8.68;4.70;;;14.50;99.90;;;;;;5052520;28;20021;-38
2023/09/03 02:50:21;;;;;;;9.10;5.10;;;14.50;99.90;;;;;;5052015;28;20257;-50
2023/09/03 02:52:48;;;;;;;7.20;4.68;;;14.60;99.90;;;;;;5051896;28;20393;-53
2023/09/03 02:55:14;;;;;;;7.53;4.83;;;14.50;99.90;;;;;;5051196;28;20017;-51
2023/09/03 02:57:40;;;;;;;9.60;5.35;;;14.60;99.90;;;;;;5052442;28;20111;-52
2023/09/03 03:00:06;;;;;;;10.70;5.00;;;14.50;99.90;;;;;;5052445;28;20481;-54
2023/09/03 03:02:32;;;;;;;7.05;4.68;;;14.40;99.90;;;;;;5052251;28;20108;-52
2023/09/03 03:04:58;;;;;;;8.77;4.95;;;14.40;99.90;;;;;;5051092;28;20547;-50
2023/09/03 03:07:25;;;;;;;5.93;3.95;;;14.50;99.90;;;;;;5052171;28;20029;-53
2023/09/03 03:09:51;;;;;;;6.88;4.97;;;14.50;99.90;;;;;;5052115;28;20029;-50
2023/09/03 03:12:16;;;;;;;6.90;4.65;;;14.50;99.90;;;;;;5051306;28;20028;-51
2023/09/03 03:14:42;;;;;;;5.70;4.47;;;14.50;99.90;;;;;;5052163;28;20033;-53
2023/09/03 03:17:08;;;;;;;5.85;4.80;;;14.50;99.90;;;;;;5051386;28;20347;-50
2023/09/03 03:19:33;;;;;;;8.55;4.85;;;14.50;99.90;;;;;;5034530;28;20028;-49
2023/09/03 03:21:59;;;;;;;8.18;4.97;;;14.50;99.90;;;;;;5050223;28;20021;-53
2023/09/03 03:24:24;;;;;;;4.95;4.00;;;14.50;99.90;;;;;;5047810;28;20398;-49
2023/09/03 03:26:50;;;;;;;9.32;4.13;;;14.50;99.90;;;;;;5055266;28;20021;-49
2023/09/03 03:29:15;;;;;;;10.07;5.20;;;14.50;99.90;;;;;;5054022;28;20021;-50
2023/09/03 03:31:45;;;;;;;6.95;4.63;;;14.50;99.90;;;;;;5049563;28;20049;-50
2023/09/03 03:34:11;;;;;;;12.05;5.22;;;14.40;99.90;;;;;;5054425;28;20111;-45
2023/09/03 03:36:37;;;;;;;7.10;4.88;;;14.40;99.90;;;;;;5053448;28;20147;-39
2023/09/03 03:39:02;;;;;;;5.88;4.03;;;14.40;99.90;;;;;;5055808;28;20021;-38
2023/09/03 03:41:28;;;;;;;8.02;4.28;;;14.40;99.90;;;;;;5055750;28;20488;-40
2023/09/03 03:43:53;;;;;;;11.50;5.15;;;14.40;99.90;;;;;;5054468;28;20033;-39
2023/09/03 03:46:20;;;;;;;7.82;5.43;;;14.30;99.90;;;;;;5054879;28;20033;-39
2023/09/03 03:48:48;;;;;;;7.85;4.88;;;14.30;99.90;;;;;;5054505;28;20063;-39
2023/09/03 03:51:14;;;;;;;7.53;4.55;;;14.30;99.90;;;;;;5054355;28;20477;-41
2023/09/03 03:53:40;;;;;;;7.32;4.95;;;14.30;99.90;;;;;;5055251;28;20071;-37
2023/09/03 03:56:08;;;;;;;6.28;5.28;;;14.30;99.90;;;;;;5055447;28;20017;-39
2023/09/03 03:58:41;;;;;;;8.45;5.65;;;14.20;99.90;;;;;;5054523;28;20474;-39
2023/09/03 04:01:12;;;;;;;6.72;5.10;;;14.10;99.90;;;;;;5055270;28;20021;-41
2023/09/03 04:03:38;;;;;;;5.93;4.22;;;14.20;99.90;;;;;;5054809;28;20033;-40
2023/09/03 04:06:03;;;;;;;4.60;4.20;;;14.20;99.90;;;;;;5054017;28;20029;-38
2023/09/03 04:08:34;;;;;;;8.20;5.40;;;14.20;99.90;;;;;;5055207;28;20036;-39
2023/09/03 04:11:04;;;;;;;7.22;4.95;;;14.20;99.90;;;;;;5055301;28;20477;-38
2023/09/03 04:13:31;;;;;;;6.30;4.38;;;14.20;99.90;;;;;;5070041;28;20024;-38
2023/09/03 04:15:58;;;;;;;6.22;4.22;;;14.30;99.90;;;;;;5054610;28;20480;-41
2023/09/03 04:18:24;;;;;;;9.02;5.13;;;14.20;99.90;;;;;;5035402;28;20025;-38
2023/09/03 04:20:55;;;;;;;9.38;5.70;;;14.20;99.90;;;;;;5041427;28;20028;-40
2023/09/03 04:23:21;;;;;;;7.15;5.05;;;14.20;99.90;;;;;;5040659;28;20071;-39
2023/09/03 04:25:47;;;;;;;7.18;5.22;;;14.20;99.90;;;;;;5053561;28;20037;-41
2023/09/03 04:28:13;;;;;;;6.93;4.80;;;14.20;99.90;;;;;;5052468;28;20100;-43
2023/09/03 04:30:39;;;;;;;9.20;5.50;;;14.30;99.90;;;;;;5052357;28;20128;-38
2023/09/03 04:33:07;;;;;;;7.05;5.35;;;14.20;99.90;;;;;;5051611;28;20021;-38
2023/09/03 04:35:33;;;;;;;8.20;5.85;;;14.20;99.90;;;;;;5049797;28;20108;-42
2023/09/03 04:37:59;;;;;;;7.78;4.40;;;14.30;99.90;;;;;;5051318;28;20021;-38
2023/09/03 04:40:25;;;;;;;7.47;4.78;;;14.30;99.90;;;;;;5053543;28;20474;-51
2023/09/03 04:42:51;;;;;;;9.43;5.60;;;14.30;99.90;;;;;;5049665;28;20143;-50
2023/09/03 04:45:16;;;;;;;9.43;5.90;;;14.30;99.90;;;;;;5054278;28;20056;-51
2023/09/03 04:47:44;;;;;;;7.97;5.72;;;14.30;99.90;;;;;;5052029;28;20033;-52
2023/09/03 04:50:10;;;;;;;14.55;5.25;;;14.20;99.90;;;;;;5052049;28;20032;-51
2023/09/03 04:52:36;;;;;;;9.57;5.22;;;14.30;99.90;;;;;;5050808;28;20127;-51
2023/09/03 04:55:01;;;;;;;6.97;4.85;;;14.30;99.90;;;;;;5052366;28;20025;-52
2023/09/03 04:57:28;;;;;;;7.80;5.30;;;14.30;99.90;;;;;;5053260;28;20044;-53
2023/09/03 04:59:53;;;;;;;6.93;4.28;;;14.30;99.90;;;;;;5050667;28;20017;-52
2023/09/03 05:02:19;;;;;;;6.80;5.35;;;14.30;99.90;;;;;;5052276;28;20045;-50
2023/09/03 05:04:44;;;;;;;11.65;5.28;;;14.30;99.90;;;;;;5051714;28;20474;-50
2023/09/03 05:07:10;;;;;;;6.40;4.72;;;14.30;99.90;;;;;;5049099;28;20385;-52
2023/09/03 05:09:36;;;;;;;8.02;5.65;;;14.30;99.90;;;;;;5052400;28;20055;-52
2023/09/03 05:12:02;;;;;;;7.10;5.18;;;14.30;99.90;;;;;;5049950;28;20068;-51
2023/09/03 05:14:28;;;;;;;7.15;5.22;;;14.30;99.90;;;;;;5052854;28;20056;-51
2023/09/03 05:16:53;;;;;;;11.18;5.53;;;14.30;99.90;;;;;;5033880;28;20025;-49
2023/09/03 05:19:19;;;;;;;8.27;5.03;;;14.30;99.90;;;;;;5052477;28;20104;-52
2023/09/03 05:21:44;;;;;;;12.23;5.10;;;14.30;99.90;;;;;;5050013;28;20104;-53
2023/09/03 05:24:10;;;;;;;8.25;5.57;;;14.30;99.90;;;;;;5051277;28;20477;-51
2023/09/03 05:26:36;;;;;;;8.63;5.72;;;14.30;99.90;;;;;;5052326;28;20025;-52
2023/09/03 05:29:02;;;;;;;8.90;5.30;;;14.30;99.90;;;;;;5051582;28;20068;-52
2023/09/03 05:31:30;;;;;;;8.10;5.13;;;14.30;99.90;;;;;;5047461;28;20040;-53
2023/09/03 05:33:56;;;;;;;8.60;5.47;;;14.30;99.90;;;;;;5035934;28;20112;-51
2023/09/03 05:36:22;;;;;;;7.70;5.15;;;14.40;99.90;;;;;;5053303;28;20028;-51
2023/09/03 05:38:48;;;;;;;10.15;5.35;;;14.40;99.90;;;;;;5051953;28;20512;-51
2023/09/03 05:41:13;;;;;;;10.65;6.18;;;14.40;99.90;;;;;;5036080;28;20059;-52
2023/09/03 05:43:39;;;;;;;9.52;6.10;;;14.40;99.90;;;;;;5050298;28;20440;-50
2023/09/03 05:46:05;;;;;;;7.70;4.95;;;14.40;99.90;;;;;;5051783;28;20466;-52
2023/09/03 05:48:31;;;;;;;8.75;5.90;;;14.40;99.90;;;;;;5053602;28;20036;-45
2023/09/03 05:51:04;;;;;;;9.60;5.45;;;14.50;99.90;;;;;;5053174;28;20032;-46
2023/09/03 05:53:33;;;;;;;8.75;5.53;;;14.50;99.90;;;;;;5051805;28;20036;-52
2023/09/03 05:56:06;;;;;;;8.60;6.05;;;14.50;99.90;;;;;;5053170;28;20029;-49
2023/09/03 05:58:33;;;;;;;8.13;4.97;;;14.60;99.90;;;;;;5053114;28;20466;-53
2023/09/03 06:01:02;;;;;;;8.75;5.38;;;14.60;99.90;;;;;;5053038;28;20024;-51
2023/09/03 06:03:28;;;;;;;9.70;5.75;;;14.70;99.90;;;;;;5050912;28;20025;-51
2023/09/03 06:05:53;;;;;;;9.00;5.82;;;14.70;99.90;;;;;;5052890;28;20035;-52
2023/09/03 06:08:19;;;;;;;8.45;5.15;;;14.80;99.90;;;;;;5051821;28;20054;-51
2023/09/03 06:10:44;;;;;;;9.32;5.40;;;14.80;99.90;;;;;;5052825;28;20058;-52
2023/09/03 06:13:10;;;;;;;10.07;6.60;;;14.90;99.90;;;;;;5052379;28;20462;-51
2023/09/03 06:15:36;;;;;;;8.95;5.72;;;14.90;99.90;;;;;;5052927;28;20029;-52
2023/09/03 06:18:01;;;;;;;10.15;5.72;;;14.90;99.90;;;;;;5052591;28;20481;-51
2023/09/03 06:20:27;;;;;;;9.98;6.30;;;14.90;99.90;;;;;;5052104;28;20024;-52
2023/09/03 06:22:52;;;;;;;12.30;5.97;;;15.00;99.90;;;;;;5051440;28;20044;-52
2023/09/03 06:25:18;;;;;;;9.35;5.80;;;15.10;99.90;;;;;;5048388;28;20040;-41
2023/09/03 06:27:44;;;;;;;9.02;6.28;;;15.10;99.90;;;;;;5045814;28;20090;-38
2023/09/03 06:30:11;;;;;;;9.37;5.80;;;15.20;99.90;;;;;;5052398;28;20053;-38
2023/09/03 06:32:37;;;;;;;9.25;5.95;;;15.20;99.90;;;;;;5051397;28;20287;-41
2023/09/03 06:35:04;;;;;;;10.48;6.60;;;15.30;99.90;;;;;;5045872;28;20028;-39
2023/09/03 06:37:30;;;;;;;10.48;6.13;;;15.30;99.90;;;;;;5050597;28;20052;-38
2023/09/03 06:39:55;;;;;;;11.30;6.47;;;15.40;99.90;;;;;;5052569;28;20013;-38
2023/09/03 06:42:22;;;;;;;12.30;6.35;;;15.40;99.90;;;;;;5051678;28;20075;-39
2023/09/03 06:44:47;;;;;;;9.00;5.78;;;15.50;99.90;;;;;;5051467;28;20105;-38
2023/09/03 06:47:13;;;;;;;10.32;5.95;;;15.50;99.90;;;;;;5046945;28;20108;-38
2023/09/03 06:49:38;;;;;;;9.90;6.15;;;15.60;99.90;;;;;;5052365;28;20384;-38
2023/09/03 06:52:04;;;;;;;10.68;5.90;;;15.70;99.90;;;;;;5051335;28;20074;-41
2023/09/03 06:54:30;;;;;;;12.88;6.97;;;15.70;99.90;;;;;;5051758;28;20017;-42
2023/09/03 06:56:56;;;;;;;9.40;5.75;;;15.80;99.90;;;;;;5052415;28;20029;-38
2023/09/03 06:59:23;;;;;;;7.80;5.60;;;15.90;99.90;;;;;;5056752;28;20032;-38
2023/09/03 07:01:50;;;;;;;11.40;6.38;;;15.90;99.90;;;;;;5056201;28;20017;-40
2023/09/03 07:04:16;;;;;;;10.43;6.88;;;16.00;99.90;;;;;;5056316;28;20066;-39
2023/09/03 07:06:41;;;;;;;13.00;7.30;;;16.10;99.90;;;;;;5056613;28;20051;-40
2023/09/03 07:09:08;;;;;;;14.25;7.05;;;16.10;99.90;;;;;;5055541;28;20029;-38
2023/09/03 07:11:33;;;;;;;9.45;6.40;;;16.10;99.90;;;;;;5055328;28;20059;-41
2023/09/03 07:13:59;;;;;;;9.65;6.32;;;16.20;99.90;;;;;;5056442;28;20025;-38
2023/09/03 07:16:25;;;;;;;8.30;6.57;;;16.20;99.90;;;;;;5056201;28;20021;-39
2023/09/03 07:18:50;;;;;;;11.48;6.47;;;16.30;99.90;;;;;;5055982;28;20119;-40
2023/09/03 07:21:16;;;;;;;12.50;6.63;;;16.30;99.90;;;;;;5056113;28;20245;-43
2023/09/03 07:23:41;;;;;;;10.13;6.20;;;16.30;99.90;;;;;;5056242;28;20017;-38
2023/09/03 07:26:09;;;;;;;10.52;6.72;;;16.40;99.90;;;;;;5051105;28;20060;-39
2023/09/03 07:28:34;;;;;;;11.35;6.50;;;16.50;99.90;;;;;;5054715;28;20033;-39
2023/09/03 07:31:00;;;;;;;13.70;6.43;;;16.50;99.90;;;;;;5053603;28;20083;-39
2023/09/03 07:33:26;;;;;;;13.13;7.07;;;16.60;99.90;;;;;;5037464;28;20037;-40
2023/09/03 07:35:51;;;;;;;10.85;7.15;;;16.60;99.90;;;;;;5055666;28;20024;-41
2023/09/03 07:38:17;;;;;;;10.63;6.72;;;16.70;99.90;;;;;;5055936;28;20045;-38
2023/09/03 07:40:43;;;;;;;10.15;6.30;;;16.70;99.90;;;;;;5055691;28;20050;-42
2023/09/03 07:43:09;;;;;;;11.07;6.90;;;16.80;99.90;;;;;;5054874;28;20021;-53
2023/09/03 07:45:34;;;;;;;9.77;6.07;;;16.80;99.90;;;;;;5054644;28;20024;-53
2023/09/03 07:48:00;;;;;;;10.98;6.90;;;16.90;99.90;;;;;;5055516;28;20394;-52
2023/09/03 07:50:30;;;;;;;10.10;6.40;;;17.00;99.90;;;;;;5055540;28;20032;-53
2023/09/03 07:52:57;;;;;;;10.32;7.00;;;17.10;99.90;;;;;;5055357;28;20025;-53
2023/09/03 07:55:23;;;;;;;8.60;6.35;;;17.10;99.90;;;;;;5052015;28;20021;-49
2023/09/03 07:57:49;;;;;;;10.15;6.20;;;17.20;99.90;;;;;;5052811;28;20100;-52
2023/09/03 08:00:14;;;;;;;11.00;6.43;;;17.30;99.90;;;;;;5046748;28;20092;-47
2023/09/03 08:02:40;;;;;;;8.80;6.10;;;17.40;99.90;;;;;;5044835;28;20025;-52
2023/09/03 08:05:06;;;;;;;8.45;6.00;;;17.40;99.90;;;;;;5055253;28;20092;-52
2023/09/03 08:07:32;;;;;;;10.00;6.03;;;17.40;99.90;;;;;;5050247;28;20500;-52
2023/09/03 08:09:57;;;;;;;11.55;6.25;;;17.50;99.90;;;;;;5053731;28;20021;-51
2023/09/03 08:12:23;;;;;;;13.95;6.30;;;17.50;99.90;;;;;;5046043;28;20029;-54
2023/09/03 08:14:49;;;;;;;9.90;6.30;;;17.70;99.90;;;;;;5035506;28;20020;-52
2023/09/03 08:17:15;;;;;;;10.13;6.45;;;17.80;99.90;;;;;;5053755;28;20033;-54
2023/09/03 08:19:41;;;;;;;6.55;5.15;;;17.90;99.90;;;;;;5054042;28;20100;-54
2023/09/03 08:22:06;;;;;;;12.32;6.22;;;18.00;99.90;;;;;;5055013;28;20025;-54
2023/09/03 08:24:32;;;;;;;9.40;5.55;;;18.10;99.90;;;;;;5054749;28;20393;-52
2023/09/03 08:26:58;;;;;;;10.77;5.18;;;18.30;99.90;;;;;;5054767;28;20489;-52
2023/09/03 08:29:24;;;;;;;7.15;5.07;;;18.40;99.90;;;;;;5054950;28;20413;-54
2023/09/03 08:31:50;;;;;;;7.10;5.55;;;18.60;99.90;;;;;;5054621;28;20432;-53
2023/09/03 08:34:16;;;;;;;8.80;4.65;;;18.70;99.90;;;;;;5053655;28;20039;-54
2023/09/03 08:36:41;;;;;;;7.43;4.68;;;18.90;99.90;;;;;;5036132;28;20028;-49
2023/09/03 08:39:07;;;;;;;5.88;4.47;;;19.00;99.90;;;;;;5051493;28;20030;-53
2023/09/03 08:41:38;;;;;;;10.63;4.80;;;19.10;99.90;;;;;;5050327;28;20045;-54
2023/09/03 08:44:07;;;;;;;5.63;4.30;;;19.20;99.90;;;;;;5048544;28;20028;-54
2023/09/03 08:46:36;;;;;;;6.05;4.32;;;19.30;99.90;;;;;;5049904;28;20036;-54
2023/09/03 08:49:04;;;;;;;6.72;4.57;;;19.40;99.90;;;;;;5048628;28;20057;-53
2023/09/03 08:51:31;;;;;;;8.15;4.43;;;19.60;99.90;;;;;;5053504;28;20060;-54
2023/09/03 08:53:59;;;;;;;7.30;4.68;;;19.70;99.90;;;;;;5054473;28;20033;-54
2023/09/03 08:56:24;;;;;;;6.13;3.85;;;19.80;99.90;;;;;;5052144;28;20017;-55
2023/09/03 08:58:50;;;;;;;5.72;3.60;;;19.90;99.90;;;;;;5054201;28;20029;-55
2023/09/03 09:01:17;;;;;;;6.28;3.55;;;19.90;99.90;;;;;;5054188;28;20225;-54
2023/09/03 09:03:44;;;;;;;3.95;3.10;;;20.00;99.90;;;;;;5053011;28;20025;-53
2023/09/03 09:06:12;;;;;;;4.07;2.72;;;20.10;99.90;;;;;;5052900;28;20120;-54
2023/09/03 09:08:39;;;;;;;4.63;2.80;;;20.20;99.90;;;;;;5050793;28;20539;-53
2023/09/03 09:11:11;;;;;;;2.20;1.75;;;20.40;99.90;;;;;;5052729;28;20504;-53
2023/09/03 09:13:41;;;;;;;2.20;1.35;;;20.50;99.90;;;;;;5053110;28;20025;-53
2023/09/03 09:16:08;;;;;;;2.95;1.50;;;20.70;99.90;;;;;;5053892;28;20028;-48
2023/09/03 09:18:33;;;;;;;3.08;1.40;;;20.80;99.90;;;;;;5051496;28;20021;-50
2023/09/03 09:21:00;;;;;;;1.60;1.50;;;21.00;99.90;;;;;;5051902;28;20040;-50
2023/09/03 09:23:27;;;;;;;1.58;1.48;;;21.00;99.90;;;;;;5053358;28;20025;-49
2023/09/03 09:25:55;;;;;;;3.80;1.30;;;21.10;99.90;;;;;;5053016;28;20036;-50
2023/09/03 09:28:21;;;;;;;1.13;0.93;;;21.10;99.90;;;;;;5051898;28;20029;-52
2023/09/03 09:30:58;;;;;;;2.10;1.40;;;21.20;99.90;;;;;;5053415;28;20073;-37
2023/09/03 09:33:24;;;;;;;2.33;1.10;;;21.30;99.90;;;;;;5053418;28;20082;-37
2023/09/03 09:35:50;;;;;;;5.72;2.60;;;21.50;99.90;;;;;;5052561;28;20557;-37
2023/09/03 09:38:17;;;;;;;2.05;1.08;;;21.60;99.90;;;;;;5053447;28;20092;-40
2023/09/03 09:40:43;;;;;;;2.85;1.17;;;21.70;99.90;;;;;;5053362;28;20036;-38
2023/09/03 09:43:09;;;;;;;4.82;1.23;;;21.80;99.90;;;;;;5058466;28;20020;-37
2023/09/03 09:45:46;;;;;;;2.20;1.33;;;21.80;99.90;;;;;;5063270;28;20032;-46
2023/09/03 09:48:12;;;;;;;2.58;1.38;;;21.90;99.90;;;;;;5048970;28;20055;-37
2023/09/03 09:50:39;;;;;;;1.17;1.08;;;21.90;99.90;;;;;;5052297;28;20036;-37
2023/09/03 09:53:18;;;;;;;1.83;1.17;;;21.80;99.90;;;;;;5049559;28;20035;-38
2023/09/03 09:55:45;;;;;;;0.95;0.93;;;21.40;99.90;;;;;;5053299;28;20025;-39
2023/09/03 09:58:12;;;;;;;1.33;1.20;;;21.40;99.90;;;;;;5052895;28;20035;-39
2023/09/03 10:00:39;;;;;;;5.50;1.10;;;21.60;99.90;;;;;;5051804;28;20029;-40
2023/09/03 10:05:50;;;;;;;2.15;1.23;;;21.40;99.90;;;;;;5044313;28;20086;-52
2023/09/03 10:08:16;;;;;;;0.95;0.88;;;21.40;99.90;;;;;;5052576;28;20024;-50
2023/09/03 10:10:43;;;;;;;1.30;1.10;;;21.50;99.90;;;;;;5048388;28;20385;-53
2023/09/03 10:13:10;;;;;;;1.10;1.00;;;21.50;99.90;;;;;;5047443;28;20029;-53
2023/09/03 10:15:38;;;;;;;3.17;1.55;;;21.50;99.90;;;;;;5028525;28;20117;-53
2023/09/03 10:18:07;;;;;;;3.40;1.40;;;21.50;99.90;;;;;;5052639;28;20021;-53
2023/09/03 10:20:33;;;;;;;3.22;1.40;;;21.70;99.90;;;;;;5050902;28;20485;-51
2023/09/03 10:23:01;;;;;;;1.25;1.02;;;21.60;99.90;;;;;;5050340;28;20052;-49
2023/09/03 10:25:29;;;;;;;1.90;1.00;;;21.60;99.90;;;;;;5050694;28;20024;-52
2023/09/03 10:28:03;;;;;;;1.17;0.85;;;21.60;99.90;;;;;;5050580;28;20478;-50
2023/09/03 10:30:55;;;;;;;2.28;1.20;;;21.80;99.90;;;;;;5050332;28;20036;-52
2023/09/03 10:33:20;;;;;;;3.38;0.93;;;22.00;99.90;;;;;;5047106;28;20049;-52
2023/09/03 10:36:12;;;;;;;1.15;0.80;;;22.10;99.90;;;;;;5048218;28;20029;-52
2023/09/03 10:38:38;;;;;;;1.17;1.08;;;22.30;99.90;;;;;;5051465;28;20021;-53
2023/09/03 10:41:23;;;;;;;0.95;0.55;;;22.40;99.90;;;;;;5033265;28;20032;-52
2023/09/03 10:43:51;;;;;;;1.75;0.75;;;22.60;99.90;;;;;;5050477;28;20047;-53
2023/09/03 10:46:17;;;;;;;0.80;0.80;;;22.60;99.90;;;;;;5051296;28;20029;-53
2023/09/03 10:48:57;;;;;;;1.20;0.70;;;22.70;99.90;;;;;;5049935;28;20487;-53
2023/09/03 10:51:37;;;;;;;0.98;0.68;;;22.60;99.90;;;;;;5051925;28;20021;-52
2023/09/03 10:54:18;;;;;;;1.05;0.70;;;22.50;99.90;;;;;;5047608;28;20044;-53
2023/09/03 10:57:06;;;;;;;1.25;0.70;;;22.30;99.90;;;;;;5044196;28;20023;-53
2023/09/03 11:00:05;;;;;;;2.92;0.90;;;22.30;99.90;;;;;;5051282;28;20123;-53
2023/09/03 11:02:33;;;;;;;0.88;0.82;;;22.50;99.90;;;;;;5050150;28;20021;-51
2023/09/03 11:05:15;;;;;;;1.35;0.80;;;22.60;99.90;;;;;;5047583;28;20394;-51
2023/09/03 11:07:43;;;;;;;1.20;0.57;;;22.70;99.90;;;;;;5047036;28;20051;-51
2023/09/03 11:10:24;;;;;;;1.33;1.23;;;22.80;99.90;;;;;;5048776;28;20531;-48
2023/09/03 11:12:51;;;;;;;0.65;0.40;;;22.90;99.90;;;;;;5048898;28;20033;-52
2023/09/03 11:15:18;;;;;;;1.42;0.75;;;22.90;99.90;;;;;;5050044;28;20048;-54
2023/09/03 11:17:52;;;;;;;2.00;0.82;;;23.00;99.90;;;;;;5050698;28;20022;-52
2023/09/03 11:20:32;;;;;;;0.47;0.43;;;23.00;99.90;;;;;;5047002;28;20471;-51
2023/09/03 11:23:00;;;;;;;0.70;0.60;;;23.00;99.90;;;;;;5054572;28;20390;-51
2023/09/03 11:25:34;;;;;;;1.02;0.70;;;22.90;99.90;;;;;;5052764;28;20047;-53
2023/09/03 11:28:01;;;;;;;1.20;1.10;;;23.00;99.90;;;;;;5052306;28;20508;-50
2023/09/03 11:30:28;;;;;;;3.80;1.20;;;23.10;99.90;;;;;;5050910;28;20616;-50
2023/09/03 11:32:54;;;;;;;1.10;0.70;;;23.20;99.90;;;;;;5052109;28;20029;-52
2023/09/03 11:35:20;;;;;;;0.90;0.90;;;23.10;99.90;;;;;;5049622;28;20032;-52
2023/09/03 11:37:45;;;;;;;1.33;0.80;;;23.00;99.90;;;;;;5051341;28;20428;-52
2023/09/03 11:40:12;;;;;;;0.68;0.60;;;23.10;99.90;;;;;;5051147;28;20033;-38
2023/09/03 11:42:41;;;;;;;1.10;1.00;;;23.20;99.90;;;;;;5051909;28;20025;-41
2023/09/03 11:45:09;;;;;;;0.98;0.90;;;23.30;99.90;;;;;;5052566;28;20033;-39
2023/09/03 11:47:49;;;;;;;1.55;1.00;;;23.30;99.90;;;;;;5035919;28;20067;-38
2023/09/03 11:50:16;;;;;;;1.38;0.77;;;23.30;99.90;;;;;;5050090;28;20516;-40
2023/09/03 11:52:49;;;;;;;0.75;0.65;;;23.30;99.90;;;;;;5054262;28;20037;-42
2023/09/03 11:55:15;;;;;;;3.38;0.80;;;23.40;99.90;;;;;;5037439;28;20051;-37
2023/09/03 11:57:44;;;;;;;2.60;1.00;;;23.40;99.90;;;;;;5050320;28;20025;-40
2023/09/03 12:00:12;;;;;;;1.85;0.77;;;23.40;99.90;;;;;;5048485;28;20075;-41
2023/09/03 12:02:39;;;;;;;0.73;0.73;;;23.40;99.90;;;;;;5050636;28;20037;-39
2023/09/03 12:05:06;;;;;;;0.70;0.70;;;23.50;99.90;;;;;;5053444;28;20512;-39
2023/09/03 12:07:31;;;;;;;0.45;0.45;;;23.40;99.90;;;;;;5037329;28;20028;-40
2023/09/03 12:09:57;;;;;;;0.50;0.50;;;23.50;99.90;;;;;;5053894;28;20029;-42
2023/09/03 12:12:23;;;;;;;2.25;0.95;;;23.60;99.90;;;;;;5055103;28;20029;-41
2023/09/03 12:14:48;;;;;;;0.70;0.70;;;23.40;99.90;;;;;;5052360;28;20028;-39
2023/09/03 12:17:29;;;;;;;1.30;1.23;;;23.50;99.90;;;;;;5053672;28;20067;-38
2023/09/03 12:19:55;;;;;;;0.80;0.80;;;23.50;99.90;;;;;;5053010;28;20044;-38
2023/09/03 12:22:24;;;;;;;0.90;0.57;;;23.40;99.90;;;;;;5053474;28;20067;-39
2023/09/03 12:24:50;;;;;;;1.83;0.77;;;23.40;99.90;;;;;;5055142;28;20026;-39
2023/09/03 12:27:16;;;;;;;1.73;0.88;;;23.30;99.90;;;;;;5073825;28;20104;-37
2023/09/03 12:29:42;;;;;;;0.65;0.65;;;23.30;99.90;;;;;;5050370;28;20390;-37
2023/09/03 12:32:14;;;;;;;1.75;0.90;;;23.30;99.90;;;;;;5052326;28;20033;-38
2023/09/03 12:34:46;;;;;;;2.63;1.10;;;23.30;99.90;;;;;;5053425;28;20132;-40
2023/09/03 12:37:11;;;;;;;0.65;0.60;;;23.30;99.90;;;;;;5053875;28;20078;-38
2023/09/03 12:39:41;;;;;;;1.60;0.65;;;23.20;99.90;;;;;;5054555;28;20108;-38
2023/09/03 12:42:08;;;;;;;0.77;0.77;;;23.10;99.90;;;;;;5053327;28;20033;-41
2023/09/03 12:44:34;;;;;;;1.05;0.60;;;23.10;99.90;;;;;;5054502;28;20023;-39
2023/09/03 12:47:01;;;;;;;0.63;0.63;;;23.00;99.90;;;;;;5051754;28;20385;-38
2023/09/03 12:49:27;;;;;;;0.88;0.80;;;23.20;99.90;;;;;;5051036;28;20104;-39
2023/09/03 12:51:54;;;;;;;0.63;0.63;;;23.20;99.90;;;;;;5050834;28;20025;-39
2023/09/03 12:54:21;;;;;;;1.33;1.17;;;23.40;99.90;;;;;;5052086;28;20382;-39